Time;durP1;ratioP1;P1;durP2;ratioP2;P2;SDS_P1;SDS_P2;PMS_P1;PMS_P2;Temp;Humidity;BMP_temperature;BMP_pressure;BME280_temperature;BME280_humidity;BME280_pressure;Samples;Min_cycle;Max_cycle;Signal;HPM_P1;HPM_P2
2023/07/15 00:01:55;;;;;;;13.88;7.57;;;;;;;-141.97;53.70;47346.09;5074702;28;20187;-79
2023/07/15 00:04:20;;;;;;;12.05;7.45;;;;;;;-141.97;53.48;47324.97;5074415;28;20180;-79
2023/07/15 00:06:46;;;;;;;10.13;7.70;;;;;;;-141.97;53.11;47311.50;5074497;28;20251;-79
2023/07/15 00:09:11;;;;;;;10.70;7.65;;;;;;;-141.97;53.33;47355.72;5073958;28;20682;-79
2023/07/15 00:11:42;;;;;;;15.05;7.25;;;;;;;-141.97;52.85;47342.25;5074736;28;20231;-79
2023/07/15 00:14:22;;;;;;;9.15;7.30;;;;;;;-141.97;52.24;47299.97;5073972;28;20160;-79
2023/07/15 00:16:49;;;;;;;12.65;7.00;;;;;;;-141.97;52.12;47380.69;5073770;28;20630;-79
2023/07/15 00:19:17;;;;;;;9.20;6.90;;;;;;;-141.97;52.17;47371.09;5073985;28;20192;-79
2023/07/15 00:21:43;;;;;;;11.45;7.47;;;;;;;-141.97;52.09;47380.69;5073884;28;20725;-79
2023/07/15 00:24:08;;;;;;;11.25;7.20;;;;;;;-141.97;52.21;47332.66;5074449;28;20209;-79
2023/07/15 00:26:34;;;;;;;11.90;7.57;;;;;;;-141.97;52.33;47326.88;5073630;28;20195;-79
2023/07/15 00:29:00;;;;;;;9.90;7.25;;;;;;;-141.97;52.71;47515.22;5074234;28;20175;-79
2023/07/15 00:31:27;;;;;;;13.05;8.10;;;;;;;-141.97;52.85;47376.84;5073824;28;20567;-79
2023/07/15 00:33:52;;;;;;;15.38;9.18;;;;;;;-141.97;54.10;47363.41;5074355;28;20171;-78
2023/07/15 00:36:18;;;;;;;12.93;9.32;;;;;;;-141.97;54.68;47336.50;5077862;28;20570;-79
2023/07/15 00:38:44;;;;;;;13.15;9.90;;;;;;;-141.97;55.25;47380.69;5081911;28;20166;-77
2023/07/15 00:41:19;;;;;;;13.50;9.32;;;;;;;-141.97;55.46;47369.16;5075980;28;20596;-79
2023/07/15 00:43:51;;;;;;;10.73;9.18;;;;;;;-141.97;54.94;47369.16;5074629;28;20171;-79
2023/07/15 00:46:19;;;;;;;11.73;8.95;;;;;;;-141.97;55.00;47326.88;5074286;28;20677;-78
2023/07/15 00:48:54;;;;;;;14.00;8.63;;;;;;;-141.97;54.11;47349.94;5073780;28;20176;-78
2023/07/15 00:51:21;;;;;;;11.80;8.35;;;;;;;-141.97;53.59;47353.78;5073999;28;20685;-77
2023/07/15 00:53:48;;;;;;;12.30;7.80;;;;;;;-141.97;52.85;47359.56;5073901;28;20252;-77
2023/07/15 00:56:14;;;;;;;11.68;7.40;;;;;;;-141.97;52.84;47307.66;5074299;28;20197;-75
2023/07/15 00:58:40;;;;;;;11.95;7.68;;;;;;;-141.97;52.58;47369.16;5074093;28;20262;-78
2023/07/15 01:01:07;;;;;;;15.82;7.68;;;;;;;-141.97;52.83;47365.31;5074067;28;20542;-78
2023/07/15 01:03:32;;;;;;;11.40;7.55;;;;;;;-141.97;52.55;47349.94;5073701;28;20199;-75
2023/07/15 01:05:58;;;;;;;10.85;6.90;;;;;;;-141.97;52.20;47351.88;5073317;28;20180;-77
2023/07/15 01:08:23;;;;;;;9.85;7.13;;;;;;;-141.97;52.03;47371.09;5073797;28;20167;-76
2023/07/15 01:10:49;;;;;;;11.70;7.07;;;;;;;-141.97;51.94;47334.56;5073012;28;20168;-76
2023/07/15 01:13:14;;;;;;;11.35;7.00;;;;;;;-141.97;51.75;47319.19;5073302;28;20233;-77
2023/07/15 01:15:39;;;;;;;11.50;6.55;;;;;;;-141.97;51.47;47367.25;5072431;28;20232;-77
2023/07/15 01:18:05;;;;;;;11.85;6.95;;;;;;;-141.97;51.63;47342.25;5072940;28;20163;-77
2023/07/15 01:20:32;;;;;;;16.02;6.82;;;;;;;-141.97;52.05;47336.50;5072981;28;20169;-78
2023/07/15 01:22:57;;;;;;;7.38;6.30;;;;;;;-141.97;51.73;47365.31;5072695;28;20160;-78
2023/07/15 01:25:23;;;;;;;10.52;6.70;;;;;;;-141.97;52.00;47365.31;5072575;28;20177;-78
2023/07/15 01:27:48;;;;;;;10.40;6.93;;;;;;;-141.97;52.03;47326.88;5072722;28;20178;-78
2023/07/15 01:30:15;;;;;;;9.05;6.85;;;;;;;-141.97;52.05;47351.88;5073117;28;20169;-78
2023/07/15 01:32:40;;;;;;;10.90;6.60;;;;;;;-141.97;52.00;47373.00;5073051;28;20165;-77
2023/07/15 01:35:07;;;;;;;10.25;6.20;;;;;;;-141.97;52.14;47378.78;5072271;28;20555;-77
2023/07/15 01:37:32;;;;;;;8.98;6.30;;;;;;;-141.97;51.76;47355.72;5071600;28;20200;-77
2023/07/15 01:39:58;;;;;;;10.35;6.43;;;;;;;-141.97;51.68;47373.00;5072777;28;20170;-77
2023/07/15 01:42:23;;;;;;;9.80;6.40;;;;;;;-141.97;51.73;47365.31;5072995;28;20150;-78
2023/07/15 01:44:49;;;;;;;11.10;6.50;;;;;;;-141.97;51.71;47376.84;5073035;28;20466;-78
2023/07/15 01:47:14;;;;;;;8.65;6.05;;;;;;;-141.97;51.30;47353.78;5072126;28;20254;-77
2023/07/15 01:49:42;;;;;;;10.48;6.32;;;;;;;-141.97;51.47;47349.94;5072083;28;20232;-78
2023/07/15 01:52:08;;;;;;;9.88;6.20;;;;;;;-141.97;51.56;47334.56;5071453;28;20214;-78
2023/07/15 01:54:33;;;;;;;9.32;6.40;;;;;;;-141.97;51.16;47311.50;5072056;28;20171;-80
2023/07/15 01:56:58;;;;;;;12.43;6.30;;;;;;;-141.97;51.86;47326.88;5071698;28;20196;-79
2023/07/15 01:59:24;;;;;;;9.50;6.50;;;;;;;-141.97;51.45;47401.84;5071702;28;20191;-79
2023/07/15 02:01:49;;;;;;;9.55;5.90;;;;;;;-141.97;51.50;47380.69;5072260;28;20173;-79
2023/07/15 02:04:15;;;;;;;10.00;6.30;;;;;;;-141.97;51.63;47401.84;5072081;28;20162;-78
2023/07/15 02:06:40;;;;;;;8.63;5.50;;;;;;;-141.97;51.62;47378.78;5072084;28;20170;-78
2023/07/15 02:09:07;;;;;;;7.70;6.40;;;;;;;-141.97;51.61;47405.69;5071767;28;20257;-78
2023/07/15 02:11:34;;;;;;;9.55;6.13;;;;;;;-141.97;51.21;47353.78;5071865;28;20243;-78
2023/07/15 02:13:59;;;;;;;11.95;5.88;;;;;;;-141.97;51.01;47365.31;5071811;28;20163;-77
2023/07/15 02:16:26;;;;;;;9.13;6.13;;;;;;;-141.97;51.43;47380.69;5071499;28;20209;-77
2023/07/15 02:18:51;;;;;;;9.18;6.00;;;;;;;-141.97;51.13;47344.19;5071774;28;20326;-77
2023/07/15 02:21:17;;;;;;;10.15;5.90;;;;;;;-141.97;51.29;47373.00;5071631;28;20167;-77
2023/07/15 02:23:42;;;;;;;8.02;5.70;;;;;;;-141.97;51.18;47373.00;5071474;28;20173;-77
2023/07/15 02:26:07;;;;;;;8.77;5.70;;;;;;;-141.97;51.32;47380.69;5071767;28;20173;-77
2023/07/15 02:28:33;;;;;;;7.38;5.22;;;;;;;-141.97;51.42;47403.75;5071989;28;20183;-78
2023/07/15 02:30:59;;;;;;;6.78;5.20;;;;;;;-141.97;51.13;47363.41;5072421;28;20176;-77
2023/07/15 02:33:25;;;;;;;8.00;5.30;;;;;;;-141.97;51.17;47376.84;5071682;28;20166;-78
2023/07/15 02:35:50;;;;;;;9.10;5.45;;;;;;;-141.97;51.07;47403.75;5072170;28;20194;-79
2023/07/15 02:38:16;;;;;;;6.28;4.82;;;;;;;-141.97;50.93;47405.69;5071713;28;20172;-78
2023/07/15 02:40:41;;;;;;;8.38;5.15;;;;;;;-141.97;50.83;47365.31;5070885;28;20223;-78
2023/07/15 02:43:07;;;;;;;7.95;5.15;;;;;;;-141.97;50.87;47407.59;5070860;28;20250;-79
2023/07/15 02:45:33;;;;;;;8.13;5.35;;;;;;;-141.97;50.76;47384.53;5071855;28;20229;-78
2023/07/15 02:47:58;;;;;;;8.90;5.45;;;;;;;-141.97;50.74;47394.16;5071571;28;20188;-78
2023/07/15 02:50:23;;;;;;;7.72;5.13;;;;;;;-141.97;50.70;47392.22;5071883;28;20171;-78
2023/07/15 02:52:49;;;;;;;7.90;5.38;;;;;;;-141.97;50.74;47388.38;5071927;28;20520;-78
2023/07/15 02:55:15;;;;;;;8.65;5.60;;;;;;;-141.97;50.38;47365.31;5070560;28;20174;-78
2023/07/15 02:57:41;;;;;;;9.27;5.22;;;;;;;-141.97;50.61;47384.53;5086669;28;20236;-78
2023/07/15 03:00:15;;;;;;;7.95;5.35;;;;;;;-141.97;50.32;47384.53;5071834;28;20585;-77
2023/07/15 03:02:49;;;;;;;8.93;5.50;;;;;;;-141.97;50.82;47407.59;5071391;28;20156;-77
2023/07/15 03:05:15;;;;;;;9.55;5.70;;;;;;;-141.97;50.57;47396.06;5071269;28;20173;-77
2023/07/15 03:07:44;;;;;;;9.38;5.65;;;;;;;-141.97;50.43;47398.00;5077594;28;20173;-79
2023/07/15 03:10:12;;;;;;;7.68;5.57;;;;;;;-141.97;50.55;47369.16;5074767;28;20639;-79
2023/07/15 03:12:37;;;;;;;10.23;5.72;;;;;;;-141.97;50.43;47374.94;5072556;28;20176;-79
2023/07/15 03:15:03;;;;;;;7.72;5.35;;;;;;;-141.97;50.37;47392.22;5071589;28;20168;-79
2023/07/15 03:17:35;;;;;;;8.25;5.40;;;;;;;-141.97;50.13;47361.47;5071572;28;20197;-78
2023/07/15 03:20:14;;;;;;;8.82;5.47;;;;;;;-141.97;50.38;47376.84;5071248;28;20244;-77
2023/07/15 03:22:40;;;;;;;9.32;5.53;;;;;;;-141.97;50.14;47409.53;5071768;28;20172;-77
2023/07/15 03:25:06;;;;;;;10.30;5.47;;;;;;;-141.97;50.05;47376.84;5071187;28;20173;-78
2023/07/15 03:27:32;;;;;;;9.10;5.65;;;;;;;-141.97;50.07;47401.84;5071374;28;20203;-77
2023/07/15 03:29:57;;;;;;;9.32;5.57;;;;;;;-141.97;50.31;47392.22;5071089;28;20235;-77
2023/07/15 03:32:23;;;;;;;9.35;5.97;;;;;;;-141.97;50.28;47378.78;5071190;28;20733;-77
2023/07/15 03:34:49;;;;;;;7.85;5.78;;;;;;;-141.97;50.23;47388.38;5070306;28;20165;-78
2023/07/15 03:37:14;;;;;;;8.63;5.75;;;;;;;-141.97;50.07;47392.22;5071266;28;20208;-78
2023/07/15 03:39:40;;;;;;;8.13;5.80;;;;;;;-141.97;50.43;47315.34;5071187;28;20245;-77
2023/07/15 03:42:05;;;;;;;7.93;5.97;;;;;;;-141.97;50.27;47407.59;5071014;28;20172;-77
2023/07/15 03:44:31;;;;;;;9.70;6.10;;;;;;;-141.97;49.88;47392.22;5070782;28;20170;-78
2023/07/15 03:46:57;;;;;;;9.32;5.80;;;;;;;-141.97;50.03;47401.84;5070946;28;20228;-78
2023/07/15 03:49:23;;;;;;;10.80;6.13;;;;;;;-141.97;50.09;47401.84;5070888;28;20190;-78
2023/07/15 03:51:49;;;;;;;9.07;5.82;;;;;;;-141.97;50.00;47376.84;5070759;28;20164;-78
2023/07/15 03:54:14;;;;;;;7.90;5.70;;;;;;;-141.97;49.95;47374.94;5071130;28;20224;-78
2023/07/15 03:56:40;;;;;;;7.65;5.65;;;;;;;-141.97;50.21;47417.22;5070846;28;20252;-78
2023/07/15 03:59:05;;;;;;;9.07;5.65;;;;;;;-141.97;49.96;47401.84;5071380;28;20518;-78
2023/07/15 04:01:31;;;;;;;8.65;6.00;;;;;;;-141.97;49.74;47384.53;5073927;28;20220;-78
2023/07/15 04:03:56;;;;;;;8.20;5.22;;;;;;;-141.97;49.86;47355.72;5074121;28;20167;-78
2023/07/15 04:06:22;;;;;;;9.77;5.95;;;;;;;-141.97;49.71;47365.31;5074251;28;20158;-77
2023/07/15 04:08:49;;;;;;;8.68;5.30;;;;;;;-141.97;49.77;47396.06;5074099;28;20175;-78
2023/07/15 04:11:16;;;;;;;7.72;5.20;;;;;;;-141.97;49.90;47403.75;5074047;28;20213;-77
2023/07/15 04:13:42;;;;;;;8.95;5.93;;;;;;;-141.97;49.59;47419.13;5074413;28;20173;-77
2023/07/15 04:16:07;;;;;;;8.48;5.22;;;;;;;-141.97;49.50;47373.00;5073485;28;20205;-76
2023/07/15 04:18:33;;;;;;;9.82;5.70;;;;;;;-141.97;49.15;47361.47;5073499;28;20176;-75
2023/07/15 04:20:58;;;;;;;8.60;5.50;;;;;;;-141.97;48.67;47359.56;5074206;28;20218;-76
2023/07/15 04:23:24;;;;;;;8.23;5.68;;;;;;;-141.97;48.07;47376.84;5074065;28;20484;-76
2023/07/15 04:25:49;;;;;;;10.35;5.43;;;;;;;-141.97;47.83;47409.53;5073883;28;20229;-76
2023/07/15 04:28:15;;;;;;;9.40;5.13;;;;;;;-141.97;47.30;47365.31;5074220;28;20210;-76
2023/07/15 04:30:40;;;;;;;9.10;5.22;;;;;;;-141.97;47.63;47373.00;5074236;28;20180;-77
2023/07/15 04:33:06;;;;;;;7.07;5.22;;;;;;;-141.97;47.25;47361.47;5073495;28;20182;-77
2023/07/15 04:35:32;;;;;;;9.27;5.45;;;;;;;-141.97;46.73;47361.47;5073351;28;20302;-76
2023/07/15 04:37:57;;;;;;;9.98;5.55;;;;;;;-141.97;46.54;47392.22;5073719;28;20647;-77
2023/07/15 04:40:22;;;;;;;8.45;5.07;;;;;;;-141.97;46.56;47361.47;5073432;28;20180;-76
2023/07/15 04:42:48;;;;;;;10.38;5.70;;;;;;;-141.97;46.42;47417.22;5074065;28;20159;-76
2023/07/15 04:45:13;;;;;;;8.55;5.53;;;;;;;-141.97;45.95;47349.94;5073320;28;20227;-76
2023/07/15 04:47:39;;;;;;;8.60;4.82;;;;;;;-141.97;46.46;47336.50;5073189;28;20179;-76
2023/07/15 04:50:05;;;;;;;8.63;5.30;;;;;;;-141.97;46.96;47392.22;5073068;28;20174;-76
2023/07/15 04:52:30;;;;;;;7.68;5.05;;;;;;;-141.97;47.66;47365.31;5073126;28;20298;-76
2023/07/15 04:54:55;;;;;;;7.97;5.05;;;;;;;-141.97;47.19;47334.56;5073325;28;20256;-76
2023/07/15 04:57:21;;;;;;;10.50;5.07;;;;;;;-141.97;47.37;47434.50;5072668;28;20193;-76
2023/07/15 04:59:48;;;;;;;8.80;5.13;;;;;;;-141.97;47.46;47386.47;5073225;28;20546;-77
2023/07/15 05:02:14;;;;;;;10.10;5.13;;;;;;;-141.97;47.60;47376.84;5072508;28;20215;-77
2023/07/15 05:04:39;;;;;;;9.95;5.55;;;;;;;-141.97;47.24;47369.16;5072710;28;20160;-77
2023/07/15 05:07:05;;;;;;;7.70;5.47;;;;;;;-141.97;47.08;47376.84;5072618;28;20175;-76
2023/07/15 05:09:31;;;;;;;10.90;5.70;;;;;;;-141.97;46.52;47376.84;5072657;28;20256;-76
2023/07/15 05:11:57;;;;;;;7.22;5.18;;;;;;;-141.97;46.71;47371.09;5072508;28;20168;-75
2023/07/15 05:14:23;;;;;;;10.15;5.68;;;;;;;-141.97;46.07;47349.94;5072685;28;20628;-76
2023/07/15 05:16:48;;;;;;;9.93;5.88;;;;;;;-141.97;45.85;47367.25;5072226;28;20262;-76
2023/07/15 05:19:13;;;;;;;10.57;6.18;;;;;;;-141.97;46.29;47346.09;5071817;28;20279;-76
2023/07/15 05:21:39;;;;;;;10.63;6.70;;;;;;;-141.97;46.58;47365.31;5073001;28;20494;-77
2023/07/15 05:24:04;;;;;;;9.43;5.60;;;;;;;-141.97;46.79;47361.47;5072981;28;20169;-75
2023/07/15 05:26:30;;;;;;;8.35;5.28;;;;;;;-141.97;47.52;47351.88;5072201;28;20190;-77
2023/07/15 05:28:56;;;;;;;9.80;5.75;;;;;;;-141.97;47.76;47334.56;5072107;28;20179;-77
2023/07/15 05:31:21;;;;;;;10.70;5.78;;;;;;;-141.97;48.27;47415.28;5072873;28;20167;-76
2023/07/15 05:33:47;;;;;;;9.63;5.43;;;;;;;-141.97;48.08;47359.56;5072117;28;20193;-75
2023/07/15 05:36:13;;;;;;;11.00;5.75;;;;;;;-141.97;47.84;47392.22;5072180;28;20192;-74
2023/07/15 05:38:42;;;;;;;8.95;5.68;;;;;;;-141.97;47.49;47371.09;5072143;28;20222;-75
2023/07/15 05:41:10;;;;;;;11.93;6.10;;;;;;;-141.97;47.57;47338.41;5074704;28;20167;-77
2023/07/15 05:43:36;;;;;;;10.60;5.38;;;;;;;-141.97;47.14;47359.56;5073135;28;20172;-77
2023/07/15 05:46:01;;;;;;;9.73;5.80;;;;;;;-141.97;47.39;47326.88;5072423;28;20295;-77
2023/07/15 05:48:26;;;;;;;12.95;5.95;;;;;;;-141.97;47.30;47371.09;5072278;28;20626;-77
2023/07/15 05:50:52;;;;;;;9.90;5.68;;;;;;;-141.97;46.93;47380.69;5071926;28;20188;-77
2023/07/15 05:53:17;;;;;;;11.02;5.20;;;;;;;-141.97;46.09;47376.84;5072465;28;20235;-77
2023/07/15 05:55:43;;;;;;;10.05;5.93;;;;;;;-141.97;46.27;47363.41;5072203;28;20245;-76
2023/07/15 05:58:11;;;;;;;8.00;5.90;;;;;;;-141.97;46.56;47446.03;5071517;28;20731;-77
2023/07/15 06:00:38;;;;;;;8.35;5.57;;;;;;;-141.97;46.55;47361.47;5071755;28;20172;-77
2023/07/15 06:03:03;;;;;;;7.97;5.57;;;;;;;-141.97;45.76;47357.63;5071269;28;20199;-77
2023/07/15 06:05:29;;;;;;;10.02;6.05;;;;;;;-141.97;45.61;47376.84;5071327;28;20625;-78
2023/07/15 06:07:54;;;;;;;9.30;5.90;;;;;;;-141.97;44.76;47353.78;5071374;28;20274;-77
2023/07/15 06:10:20;;;;;;;12.68;5.70;;;;;;;-141.97;45.24;47349.94;5071378;28;20521;-76
2023/07/15 06:12:45;;;;;;;9.05;5.70;;;;;;;-141.97;45.97;47361.47;5071063;28;20178;-77
2023/07/15 06:15:10;;;;;;;12.07;5.95;;;;;;;-141.97;45.98;47346.09;5071512;28;20535;-77
2023/07/15 06:17:36;;;;;;;9.27;6.47;;;;;;;-141.97;45.13;47365.31;5071065;28;20207;-77
2023/07/15 06:20:02;;;;;;;11.95;6.63;;;;;;;-141.97;44.92;47330.72;5071472;28;20218;-78
2023/07/15 06:22:27;;;;;;;10.23;5.93;;;;;;;-141.97;45.24;47361.47;5070540;28;20162;-77
2023/07/15 06:24:52;;;;;;;12.95;6.00;;;;;;;-141.97;45.34;47330.72;5070308;28;20194;-76
2023/07/15 06:27:19;;;;;;;11.88;6.57;;;;;;;-141.97;45.26;47342.25;5070883;28;20267;-77
2023/07/15 06:29:47;;;;;;;11.98;5.90;;;;;;;-141.97;45.27;47348.03;5070676;28;20172;-76
2023/07/15 06:32:12;;;;;;;11.75;6.07;;;;;;;-141.97;44.48;47373.00;5070749;28;20544;-77
2023/07/15 06:34:38;;;;;;;9.45;6.20;;;;;;;-141.97;43.78;47365.31;5070681;28;20582;-77
2023/07/15 06:37:03;;;;;;;13.85;6.45;;;;;;;-141.97;43.73;47326.88;5070838;28;20189;-77
2023/07/15 06:39:29;;;;;;;10.65;5.43;;;;;;;-141.97;44.00;47376.84;5071225;28;20628;-77
2023/07/15 06:41:54;;;;;;;9.35;6.00;;;;;;;-141.97;44.18;47346.09;5070380;28;20160;-77
2023/07/15 06:44:20;;;;;;;11.88;6.07;;;;;;;-141.97;43.76;47348.03;5071087;28;20632;-75
2023/07/15 06:46:45;;;;;;;9.80;6.13;;;;;;;-141.97;42.69;47324.97;5070883;28;20237;-76
2023/07/15 06:49:10;;;;;;;11.13;6.13;;;;;;;-141.97;42.41;47319.19;5070683;28;20167;-77
2023/07/15 06:51:36;;;;;;;10.00;6.43;;;;;;;-141.97;42.45;47326.88;5071242;28;20207;-77
2023/07/15 06:54:01;;;;;;;9.48;6.00;;;;;;;-141.97;42.20;47338.41;5070771;28;20263;-77
2023/07/15 06:56:28;;;;;;;12.45;6.00;;;;;;;-141.97;41.58;47432.59;5068140;28;20197;-77
2023/07/15 06:58:53;;;;;;;10.55;6.40;;;;;;;-141.97;42.37;47353.78;5061508;28;20200;-77
2023/07/15 07:01:19;;;;;;;9.77;5.80;;;;;;;-141.97;42.80;47299.97;5058658;28;20581;-77
2023/07/15 07:03:47;;;;;;;12.68;6.22;;;;;;;-141.97;42.76;47319.19;5068713;28;20176;-76
2023/07/15 07:06:13;;;;;;;10.35;6.40;;;;;;;-141.97;42.60;47317.28;5069990;28;20216;-76
2023/07/15 07:08:38;;;;;;;11.45;6.30;;;;;;;-141.97;43.22;47315.34;5070536;28;20176;-76
2023/07/15 07:11:03;;;;;;;8.63;6.30;;;;;;;-141.97;43.39;47353.78;5070510;28;20201;-77
2023/07/15 07:13:29;;;;;;;14.38;6.50;;;;;;;-141.97;43.41;47319.19;5070976;28;20172;-76
2023/07/15 07:15:58;;;;;;;8.65;6.30;;;;;;;-141.97;43.29;47338.41;5070504;28;20187;-77
2023/07/15 07:18:25;;;;;;;11.43;7.25;;;;;;;-141.97;43.45;47298.06;5069243;28;20206;-77
2023/07/15 07:20:57;;;;;;;12.77;7.00;;;;;;;-141.97;42.94;47334.56;5070570;28;20188;-77
2023/07/15 07:23:22;;;;;;;11.70;6.90;;;;;;;-141.97;42.17;47311.50;5070494;28;20259;-76
2023/07/15 07:25:49;;;;;;;9.38;6.40;;;;;;;-141.97;42.37;47309.59;5070569;28;20266;-77
2023/07/15 07:28:14;;;;;;;10.00;6.90;;;;;;;-141.97;41.24;47315.34;5069286;28;20256;-76
2023/07/15 07:30:40;;;;;;;9.07;6.93;;;;;;;-141.97;41.43;47326.88;5070988;28;20271;-76
2023/07/15 07:33:06;;;;;;;12.05;7.05;;;;;;;-141.97;40.83;47284.59;5070529;28;20168;-76
2023/07/15 07:35:31;;;;;;;13.07;7.30;;;;;;;-141.97;40.35;47263.47;5072369;28;20172;-76
2023/07/15 07:37:57;;;;;;;10.55;7.10;;;;;;;-141.97;40.35;47288.44;5074081;28;20200;-76
2023/07/15 07:40:22;;;;;;;12.52;7.50;;;;;;;-141.97;40.61;47280.75;5073934;28;20199;-77
2023/07/15 07:42:47;;;;;;;12.30;7.75;;;;;;;-141.97;39.94;47317.28;5074367;28;20167;-76
2023/07/15 07:45:16;;;;;;;11.65;7.63;;;;;;;-141.97;39.81;47499.84;5074191;28;20711;-76
2023/07/15 07:47:42;;;;;;;11.68;7.60;;;;;;;-141.97;40.14;47319.19;5074764;28;20237;-76
2023/07/15 07:50:08;;;;;;;13.02;7.90;;;;;;;-141.97;40.13;47269.22;5073643;28;20652;-77
2023/07/15 07:52:33;;;;;;;10.48;7.97;;;;;;;-141.97;40.46;47280.75;5073879;28;20234;-76
2023/07/15 07:54:59;;;;;;;11.07;8.05;;;;;;;-141.97;40.95;47326.88;5074217;28;20592;-76
2023/07/15 07:57:24;;;;;;;9.82;7.78;;;;;;;-141.97;39.75;47263.47;5074123;28;20200;-76
2023/07/15 07:59:49;;;;;;;11.15;7.78;;;;;;;-141.97;39.85;47269.22;5073891;28;20633;-76
2023/07/15 08:02:15;;;;;;;11.00;8.20;;;;;;;-141.97;39.66;47280.75;5074134;28;20207;-76
2023/07/15 08:04:40;;;;;;;18.42;7.68;;;;;;;-141.97;38.95;47319.19;5073571;28;20617;-76
2023/07/15 08:07:06;;;;;;;12.63;8.07;;;;;;;-141.97;38.81;47255.78;5072830;28;20259;-76
2023/07/15 08:09:31;;;;;;;11.93;8.30;;;;;;;-141.97;37.98;47188.50;5073844;28;20168;-75
2023/07/15 08:11:58;;;;;;;11.60;8.57;;;;;;;-141.97;38.56;47259.63;5075072;28;20565;-74
2023/07/15 08:14:23;;;;;;;12.60;8.60;;;;;;;-141.97;38.47;47257.69;5074070;28;20256;-78
2023/07/15 08:16:50;;;;;;;13.10;8.95;;;;;;;-141.97;39.43;47259.63;5073920;28;20303;-74
2023/07/15 08:19:16;;;;;;;13.20;9.27;;;;;;;-141.97;38.78;47288.44;5073734;28;20168;-76
2023/07/15 08:21:41;;;;;;;13.57;9.15;;;;;;;-141.97;39.60;47275.00;5073754;28;20613;-77
2023/07/15 08:24:07;;;;;;;14.50;9.98;;;;;;;-141.97;38.53;47226.94;5073772;28;20168;-77
2023/07/15 08:26:32;;;;;;;14.07;9.50;;;;;;;-141.97;39.93;47263.47;5073692;28;20166;-77
2023/07/15 08:28:58;;;;;;;12.18;9.38;;;;;;;-141.97;39.87;47276.91;5073677;28;20169;-77
2023/07/15 08:31:24;;;;;;;12.93;9.48;;;;;;;-141.97;39.56;47219.25;5073241;28;20203;-77
2023/07/15 08:33:49;;;;;;;11.35;9.20;;;;;;;-141.97;39.27;47288.44;5072443;28;20199;-77
2023/07/15 08:36:15;;;;;;;14.40;9.50;;;;;;;-141.97;40.07;47288.44;5073566;28;20275;-77
2023/07/15 08:38:40;;;;;;;13.88;10.05;;;;;;;-141.97;40.21;47284.59;5073663;28;20651;-77
2023/07/15 08:41:06;;;;;;;14.00;10.50;;;;;;;-141.97;40.30;47296.13;5073344;28;20246;-77
2023/07/15 08:43:32;;;;;;;15.25;10.20;;;;;;;-141.97;39.81;47315.34;5073332;28;20624;-77
2023/07/15 08:46:06;;;;;;;13.10;10.18;;;;;;;-141.97;39.52;47276.91;5072492;28;20236;-76
2023/07/15 08:48:32;;;;;;;14.88;10.48;;;;;;;-141.97;39.36;47242.31;5072835;28;20166;-77
2023/07/15 08:50:59;;;;;;;15.50;10.75;;;;;;;-141.97;39.13;47284.59;5072911;28;20252;-77
2023/07/15 08:53:27;;;;;;;15.38;10.65;;;;;;;-141.97;39.13;47261.53;5073024;28;20193;-77
2023/07/15 08:55:57;;;;;;;16.63;11.20;;;;;;;-141.97;38.76;47269.22;5072609;28;20268;-77
2023/07/15 08:58:24;;;;;;;14.25;10.98;;;;;;;-141.97;39.13;47259.63;5072685;28;20160;-76
2023/07/15 09:00:53;;;;;;;14.02;10.38;;;;;;;-141.97;39.34;47265.38;5073214;28;20177;-77
2023/07/15 09:03:19;;;;;;;13.68;10.23;;;;;;;-141.97;38.93;47178.91;5073428;28;20172;-77
2023/07/15 09:05:45;;;;;;;16.42;10.05;;;;;;;-141.97;38.64;47242.31;5072621;28;20169;-77
2023/07/15 09:08:17;;;;;;;14.27;9.65;;;;;;;-141.97;39.18;47275.00;5072827;28;20173;-77
2023/07/15 09:10:56;;;;;;;15.40;9.88;;;;;;;-141.97;39.27;47236.56;5073264;28;20161;-77
2023/07/15 09:13:35;;;;;;;15.75;9.57;;;;;;;-141.97;38.77;47261.53;5072313;28;20260;-76
2023/07/15 09:16:01;;;;;;;16.38;9.98;;;;;;;-141.97;38.35;47240.41;5072719;28;20179;-76
2023/07/15 09:18:27;;;;;;;13.45;8.80;;;;;;;-141.97;38.07;47217.34;5072298;28;20511;-76
2023/07/15 09:21:08;;;;;;;13.65;9.18;;;;;;;-141.97;38.29;47242.31;5072313;28;20247;-76
2023/07/15 09:23:34;;;;;;;15.15;9.45;;;;;;;-141.97;38.38;47248.09;5072571;28;20540;-77
2023/07/15 09:26:00;;;;;;;14.60;8.73;;;;;;;-141.97;37.96;47226.94;5072082;28;20164;-77
2023/07/15 09:28:26;;;;;;;12.60;8.70;;;;;;;-141.97;38.31;47148.16;5072422;28;20168;-74
2023/07/15 09:30:51;;;;;;;13.10;8.75;;;;;;;-141.97;37.89;47207.72;5072643;28;20282;-77
2023/07/15 09:33:35;;;;;;;11.85;8.25;;;;;;;-141.97;37.64;47269.22;5072231;28;20301;-77
2023/07/15 09:36:02;;;;;;;14.02;8.50;;;;;;;-141.97;37.40;47246.16;5072194;28;20175;-75
2023/07/15 09:38:38;;;;;;;12.93;9.00;;;;;;;-141.97;37.57;47446.03;5070940;28;20176;-76
2023/07/15 09:41:08;;;;;;;12.02;8.40;;;;;;;-141.97;37.40;47242.31;5072231;28;20161;-77
2023/07/15 09:43:44;;;;;;;9.95;8.43;;;;;;;-141.97;37.00;47213.50;5071670;28;20179;-76
2023/07/15 09:46:10;;;;;;;11.25;8.52;;;;;;;-141.97;37.48;47271.16;5071502;28;20236;-76
2023/07/15 09:48:36;;;;;;;12.40;8.77;;;;;;;-141.97;37.36;47223.09;5071444;28;20235;-76
2023/07/15 09:51:01;;;;;;;12.60;8.82;;;;;;;-141.97;37.17;47217.34;5072137;28;20668;-75
2023/07/15 09:53:28;;;;;;;11.23;8.85;;;;;;;-141.97;36.90;47219.25;5075418;28;20164;-75
2023/07/15 09:55:54;;;;;;;13.40;9.05;;;;;;;-141.97;36.30;47209.66;5075404;28;20169;-75
2023/07/15 09:58:24;;;;;;;13.57;8.63;;;;;;;-141.97;36.43;47194.28;5071630;28;20633;-76
2023/07/15 10:01:00;;;;;;;12.70;8.85;;;;;;;-141.97;36.49;47230.78;5074015;28;20196;-76
2023/07/15 10:03:34;;;;;;;12.63;9.23;;;;;;;-141.97;36.01;47217.34;5072390;28;20241;-77
2023/07/15 10:06:00;;;;;;;11.35;8.75;;;;;;;-141.97;36.02;47146.22;5074031;28;20635;-77
2023/07/15 10:08:28;;;;;;;12.48;8.98;;;;;;;-141.97;36.99;47200.03;5072727;28;20234;-77
2023/07/15 10:10:53;;;;;;;14.65;9.05;;;;;;;-141.97;37.32;47225.03;5072213;28;20252;-77
2023/07/15 10:13:19;;;;;;;13.98;9.48;;;;;;;-141.97;36.85;47248.09;5071741;28;20598;-77
2023/07/15 10:15:45;;;;;;;12.27;9.40;;;;;;;-141.97;36.89;47207.72;5071706;28;20180;-77
2023/07/15 10:18:16;;;;;;;13.13;8.88;;;;;;;-141.97;37.37;47230.78;5071315;28;20204;-76
2023/07/15 10:20:56;;;;;;;13.73;9.77;;;;;;;-141.97;37.29;47211.56;5069922;28;20234;-76
2023/07/15 10:23:29;;;;;;;13.52;9.73;;;;;;;-141.97;36.73;47225.03;5072329;28;20172;-77
2023/07/15 10:26:05;;;;;;;13.30;9.38;;;;;;;-141.97;36.76;47157.75;5071633;28;20165;-77
2023/07/15 10:28:39;;;;;;;13.85;9.30;;;;;;;-141.97;35.76;47201.97;5071530;28;20180;-76
2023/07/15 10:31:05;;;;;;;17.15;9.73;;;;;;;-141.97;35.71;47196.19;5071301;28;20264;-77
2023/07/15 10:33:30;;;;;;;12.38;9.40;;;;;;;-141.97;35.69;47169.28;5071364;28;20243;-77
2023/07/15 10:35:56;;;;;;;13.43;9.50;;;;;;;-141.97;35.38;47196.19;5071053;28;20629;-78
2023/07/15 10:38:26;;;;;;;14.52;9.18;;;;;;;-141.97;35.37;47180.81;5071036;28;20160;-77
2023/07/15 10:40:55;;;;;;;10.75;8.88;;;;;;;-141.97;35.26;47194.28;5072106;28;20647;-78
2023/07/15 10:43:38;;;;;;;11.88;8.65;;;;;;;-141.97;35.28;47526.75;5079745;28;20216;-77
2023/07/15 10:46:03;;;;;;;14.77;9.20;;;;;;;-141.97;34.69;47192.34;5071878;28;20307;-77
2023/07/15 10:48:28;;;;;;;12.68;9.07;;;;;;;-141.97;35.03;47169.28;5071232;28;20197;-77
2023/07/15 10:50:56;;;;;;;10.70;8.95;;;;;;;-141.97;34.96;47209.66;5071366;28;20167;-77
2023/07/15 10:53:26;;;;;;;13.35;9.55;;;;;;;-141.97;34.76;47188.50;5071269;28;20253;-77
2023/07/15 10:55:59;;;;;;;11.82;9.63;;;;;;;-141.97;35.17;47200.03;5071322;28;20161;-77
2023/07/15 10:58:29;;;;;;;15.48;9.82;;;;;;;-141.97;34.81;47184.66;5070983;28;20185;-77
2023/07/15 11:01:13;;;;;;;11.05;9.23;;;;;;;-141.97;35.73;47200.03;5070819;28;20188;-77
2023/07/15 11:03:43;;;;;;;14.35;8.93;;;;;;;-141.97;35.26;47203.88;5070583;28;20168;-77
2023/07/15 11:06:10;;;;;;;14.65;9.55;;;;;;;-141.97;34.78;47173.13;5070609;28;20165;-77
2023/07/15 11:08:36;;;;;;;12.23;9.70;;;;;;;-141.97;34.30;47175.06;5070979;28;20161;-77
2023/07/15 11:11:04;;;;;;;13.35;9.30;;;;;;;-141.97;34.59;47078.97;5074826;28;20176;-79